Time;durP1;ratioP1;P1;durP2;ratioP2;P2;SDS_P1;SDS_P2;PMS_P1;PMS_P2;Temp;Humidity;BMP_temperature;BMP_pressure;BME280_temperature;BME280_humidity;BME280_pressure;Samples;Min_cycle;Max_cycle;Signal;HPM_P1;HPM_P2
2022/02/05 00:02:10;;;;;;;0.20;0.20;;;;;;;6.09;100.00;99943.78;5030836;28;20053;-78
2022/02/05 00:05:17;;;;;;;2.55;1.20;;;;;;;6.19;100.00;99954.97;5030677;28;20120;-79
2022/02/05 00:08:41;;;;;;;10.48;0.82;;;;;;;6.13;100.00;99954.72;5030785;28;20057;-79
2022/02/05 00:15:46;;;;;;;0.73;0.35;;;;;;;6.10;100.00;99955.63;5030980;28;20070;-80
2022/02/05 00:44:55;;;;;;;0.10;0.10;;;;;;;6.37;100.00;99941.31;5014874;28;20056;-79
2022/02/05 00:48:00;;;;;;;2.60;0.38;;;;;;;6.22;100.00;99945.75;5014251;28;20065;-79
2022/02/05 00:51:13;;;;;;;0.25;0.22;;;;;;;6.08;100.00;99947.00;5031157;28;20060;-79
2022/02/05 00:54:20;;;;;;;0.20;0.20;;;;;;;5.98;100.00;99937.81;5034439;28;20072;-79
2022/02/05 01:00:32;;;;;;;0.43;0.43;;;;;;;5.80;100.00;99948.63;5034173;28;20451;-79
2022/02/05 01:03:36;;;;;;;1.45;0.55;;;;;;;5.70;100.00;99960.75;5033026;28;20510;-78
2022/02/05 01:06:40;;;;;;;1.10;0.63;;;;;;;5.62;100.00;99975.22;5033988;28;20701;-78
2022/02/05 01:09:46;;;;;;;3.03;0.77;;;;;;;5.66;100.00;99987.72;5033936;28;20076;-79
2022/02/05 01:12:56;;;;;;;22.02;0.73;;;;;;;5.65;100.00;99983.38;5034127;28;20049;-78
2022/02/05 01:22:41;;;;;;;0.10;0.10;;;;;;;5.71;100.00;99983.63;5033841;28;20061;-79
2022/02/05 01:25:53;;;;;;;0.17;0.17;;;;;;;5.66;100.00;99996.00;5033008;28;20056;-79
2022/02/05 01:29:02;;;;;;;;;;;;;;;5.55;100.00;99992.00;5034060;28;20052;-79
2022/02/05 01:32:11;;;;;;;0.10;0.10;;;;;;;5.45;100.00;99993.84;5032745;28;20355;-79
2022/02/05 01:35:28;;;;;;;5.75;0.40;;;;;;;5.37;100.00;100009.06;5032749;28;20514;-78
2022/02/05 01:48:58;;;;;;;2.05;0.75;;;;;;;5.07;100.00;100010.25;5033455;28;20052;-80
2022/02/05 01:52:13;;;;;;;1.38;0.65;;;;;;;4.93;100.00;100010.63;5033317;28;20125;-80
2022/02/05 01:55:31;;;;;;;0.38;0.38;;;;;;;4.79;100.00;100018.47;5032276;28;20133;-80
2022/02/05 01:58:54;;;;;;;0.43;0.40;;;;;;;4.72;100.00;100013.16;5033311;28;20061;-80
2022/02/05 02:05:29;;;;;;;0.82;0.38;;;;;;;4.54;100.00;100000.59;5033188;28;20065;-80
2022/02/05 02:15:11;;;;;;;0.57;0.57;;;;;;;4.41;100.00;100010.75;5033434;28;19921;-81
2022/02/05 02:28:11;;;;;;;0.50;0.50;;;;;;;4.33;100.00;100009.34;5032827;28;20056;-79
2022/02/05 02:31:24;;;;;;;0.50;0.50;;;;;;;4.21;100.00;100012.00;5032226;28;20053;-79
2022/02/05 02:34:33;;;;;;;0.52;0.52;;;;;;;4.18;100.00;100001.84;5032500;28;20056;-80
2022/02/05 02:37:47;;;;;;;12.23;0.60;;;;;;;4.05;100.00;100010.00;5031683;28;20507;-80
2022/02/05 02:41:02;;;;;;;0.30;0.30;;;;;;;4.01;100.00;100017.56;5031429;28;20518;-79
2022/02/05 02:44:05;;;;;;;26.40;1.05;;;;;;;3.96;100.00;100022.81;5032261;28;20052;-80
2022/02/05 02:47:08;;;;;;;0.28;0.28;;;;;;;3.93;100.00;100023.66;5032392;28;20072;-80
2022/02/05 02:57:25;;;;;;;1.20;1.00;;;;;;;3.85;100.00;100012.03;5031726;28;20403;-79
2022/02/05 03:00:18;;;;;;;0.57;0.57;;;;;;;3.88;100.00;100022.16;5032034;28;20056;-80
2022/02/05 03:03:21;;;;;;;0.63;0.35;;;;;;;3.77;100.00;100016.09;5032196;28;20053;-80
2022/02/05 03:06:25;;;;;;;0.20;0.20;;;;;;;3.75;100.00;100013.00;5031704;28;20056;-80
2022/02/05 03:09:28;;;;;;;0.30;0.20;;;;;;;3.73;100.00;100020.91;5031739;28;20061;-81
2022/02/05 03:12:34;;;;;;;0.40;0.40;;;;;;;3.78;100.00;100031.44;5031903;28;20057;-80
2022/02/05 03:15:39;;;;;;;0.57;0.57;;;;;;;3.76;100.00;100026.38;5031174;28;20517;-80
2022/02/05 03:19:00;;;;;;;0.30;0.30;;;;;;;3.75;100.00;100041.34;5031481;28;20052;-80
2022/02/05 03:22:03;;;;;;;0.45;0.45;;;;;;;3.84;100.00;100038.78;5031494;28;20410;-80
2022/02/05 03:25:06;;;;;;;0.28;0.28;;;;;;;3.88;100.00;100033.19;5031881;28;20400;-77
2022/02/05 03:28:10;;;;;;;4.18;0.73;;;;;;;3.81;100.00;100033.38;5031583;28;20057;-80
2022/02/05 03:31:13;;;;;;;0.38;0.38;;;;;;;3.83;100.00;100026.19;5031936;28;20052;-80
2022/02/05 03:34:17;;;;;;;0.20;0.20;;;;;;;3.87;100.00;100025.38;5031385;28;20052;-80
2022/02/05 03:37:21;;;;;;;0.30;0.30;;;;;;;3.87;100.00;100019.84;5031854;28;20056;-80
2022/02/05 03:40:24;;;;;;;0.20;0.20;;;;;;;3.81;100.00;100019.59;5031038;28;20056;-77
2022/02/05 03:43:28;;;;;;;2.38;0.82;;;;;;;3.75;100.00;100015.75;5031269;28;20064;-80
2022/02/05 03:46:31;;;;;;;0.40;0.40;;;;;;;3.78;100.00;100015.72;5031533;28;20056;-79
2022/02/05 03:49:34;;;;;;;0.30;0.30;;;;;;;3.71;100.00;100017.81;5031105;28;20445;-79
2022/02/05 03:52:38;;;;;;;0.38;0.38;;;;;;;3.68;100.00;100019.44;5030338;28;20509;-80
2022/02/05 03:55:45;;;;;;;0.40;0.40;;;;;;;3.73;100.00;100018.16;5031152;28;20076;-80
2022/02/05 03:58:48;;;;;;;0.10;0.10;;;;;;;3.74;100.00;100023.28;5031244;28;20057;-80
2022/02/05 04:01:54;;;;;;;25.05;1.40;;;;;;;3.72;100.00;100006.41;5030833;28;20052;-80
2022/02/05 04:04:57;;;;;;;0.15;0.13;;;;;;;3.72;100.00;100003.66;5031341;28;20502;-80
2022/02/05 04:08:02;;;;;;;0.50;0.50;;;;;;;3.64;100.00;100006.94;5030362;28;20068;-80
2022/02/05 04:11:25;;;;;;;1.25;0.30;;;;;;;3.57;100.00;100007.09;5031075;28;20518;-80
2022/02/05 04:17:51;;;;;;;0.38;0.38;;;;;;;3.54;100.00;100007.94;5031237;28;20045;-80
2022/02/05 04:20:55;;;;;;;0.40;0.40;;;;;;;3.58;100.00;100014.16;5030824;28;20060;-80
2022/02/05 04:24:00;;;;;;;0.80;0.75;;;;;;;3.62;100.00;100009.34;5031201;28;20052;-79
2022/02/05 04:27:04;;;;;;;0.52;0.52;;;;;;;3.65;100.00;100009.28;5011494;28;20076;-80
2022/02/05 04:30:08;;;;;;;0.47;0.47;;;;;;;3.72;100.00;100003.66;5020003;28;20506;-81
2022/02/05 04:33:12;;;;;;;0.60;0.60;;;;;;;3.83;100.00;100019.94;5030726;28;20052;-80
2022/02/05 04:36:18;;;;;;;0.30;0.30;;;;;;;3.80;100.00;100016.06;5030052;28;20057;-80
2022/02/05 04:39:22;;;;;;;0.55;0.55;;;;;;;3.93;100.00;100023.66;5030096;28;20064;-81
2022/02/05 04:42:36;;;;;;;0.50;0.50;;;;;;;3.90;100.00;100019.75;5030730;28;20056;-80
2022/02/05 04:56:15;;;;;;;0.57;0.57;;;;;;;3.67;100.00;100001.38;5011358;28;20057;-80
2022/02/05 05:21:34;;;;;;;0.35;0.35;;;;;;;3.36;100.00;99991.00;5014402;28;20053;-81
2022/02/05 05:24:38;;;;;;;0.30;0.30;;;;;;;3.29;100.00;99983.66;5015337;28;20076;-81
2022/02/05 05:27:41;;;;;;;1.08;0.60;;;;;;;3.28;100.00;99986.84;5033940;28;20068;-80
2022/02/05 05:30:44;;;;;;;0.43;0.40;;;;;;;3.22;100.00;99974.78;5033636;28;20060;-78
2022/02/05 05:33:48;;;;;;;0.95;0.95;;;;;;;3.23;100.00;99979.09;5033733;28;20052;-79
2022/02/05 05:36:53;;;;;;;0.73;0.40;;;;;;;3.19;100.00;99976.41;5033854;28;20049;-79
2022/02/05 05:39:56;;;;;;;1.15;0.65;;;;;;;3.25;100.00;99976.69;5032923;28;20048;-80
2022/02/05 05:43:04;;;;;;;0.30;0.30;;;;;;;3.30;100.00;99976.19;5033508;28;20056;-79
2022/02/05 05:46:23;;;;;;;0.20;0.20;;;;;;;3.35;100.00;99972.94;5033731;28;20395;-79
2022/02/05 05:49:45;;;;;;;0.30;0.30;;;;;;;3.39;100.00;99968.94;5033193;28;20061;-79
2022/02/05 05:52:48;;;;;;;20.10;1.75;;;;;;;3.34;100.00;99974.91;5033597;28;20052;-81
2022/02/05 05:55:52;;;;;;;10.43;0.95;;;;;;;3.30;100.00;99967.94;5033581;28;20052;-81
2022/02/05 05:58:56;;;;;;;0.65;0.65;;;;;;;3.27;100.00;99955.78;5032736;28;20565;-81
2022/02/05 06:02:01;;;;;;;4.47;0.50;;;;;;;3.23;100.00;99959.84;5033406;28;20052;-81
2022/02/05 06:05:05;;;;;;;0.70;0.70;;;;;;;3.22;100.00;99959.06;5033025;28;20407;-81
2022/02/05 06:08:08;;;;;;;5.05;0.85;;;;;;;3.18;100.00;99960.31;5032031;28;20514;-81
2022/02/05 06:11:12;;;;;;;0.43;0.43;;;;;;;3.12;100.00;99964.75;5032187;28;20074;-81
2022/02/05 06:14:20;;;;;;;33.47;2.03;;;;;;;3.13;100.00;99956.06;5032237;28;20064;-82
2022/02/05 06:17:25;;;;;;;1.40;1.30;;;;;;;3.16;100.00;99957.22;5031225;28;20076;-81
2022/02/05 06:20:29;;;;;;;0.32;0.32;;;;;;;3.24;100.00;99955.88;5031881;28;20052;-81
2022/02/05 06:23:33;;;;;;;0.20;0.20;;;;;;;3.27;100.00;99950.28;5032083;28;20056;-81
2022/02/05 06:26:36;;;;;;;0.22;0.22;;;;;;;3.32;100.00;99949.00;5033228;28;20052;-81
2022/02/05 06:29:40;;;;;;;0.40;0.40;;;;;;;3.36;100.00;99946.97;5032048;28;20056;-81
2022/02/05 06:32:43;;;;;;;0.50;0.50;;;;;;;3.39;100.00;99940.63;5032204;28;20056;-81
2022/02/05 06:35:46;;;;;;;0.82;0.82;;;;;;;3.37;100.00;99937.50;5031990;28;20053;-81
2022/02/05 06:38:50;;;;;;;0.50;0.50;;;;;;;3.31;100.00;99940.00;5031974;28;20065;-81
2022/02/05 06:41:53;;;;;;;0.40;0.40;;;;;;;3.25;100.00;99929.91;5032206;28;20052;-81
2022/02/05 06:44:56;;;;;;;27.10;1.75;;;;;;;3.21;100.00;99920.94;5031874;28;20057;-80
2022/02/05 06:48:00;;;;;;;2.20;1.20;;;;;;;3.22;100.00;99917.78;5031662;28;20057;-81
2022/02/05 06:51:03;;;;;;;0.40;0.40;;;;;;;3.23;100.00;99916.56;5031828;28;20052;-81
2022/02/05 06:54:06;;;;;;;0.40;0.40;;;;;;;3.29;100.00;99925.88;5031771;28;20498;-80
2022/02/05 06:57:09;;;;;;;0.60;0.60;;;;;;;3.35;100.00;99926.16;5032214;28;20502;-81
2022/02/05 07:00:13;;;;;;;23.02;0.93;;;;;;;3.40;100.00;99936.69;5031407;28;20517;-81
2022/02/05 07:03:20;;;;;;;0.45;0.45;;;;;;;3.63;100.00;99933.81;5031446;28;20048;-81
2022/02/05 07:06:24;;;;;;;0.40;0.40;;;;;;;3.92;100.00;99918.19;5032139;28;20056;-81
2022/02/05 07:09:28;;;;;;;0.52;0.52;;;;;;;4.10;100.00;99921.31;5032006;28;20052;-81
2022/02/05 07:12:34;;;;;;;1.08;0.70;;;;;;;4.15;100.00;99915.28;5031732;28;20057;-81
2022/02/05 07:15:41;;;;;;;0.40;0.40;;;;;;;4.20;100.00;99911.25;5032871;28;20398;-82
2022/02/05 07:21:52;;;;;;;0.45;0.45;;;;;;;4.55;100.00;99897.31;5034142;28;20076;-82
2022/02/05 07:31:40;;;;;;;0.40;0.40;;;;;;;4.88;100.00;99906.31;5013084;28;20467;-81
2022/02/05 07:34:44;;;;;;;0.75;0.63;;;;;;;4.99;100.00;99895.75;5012453;28;20506;-81
2022/02/05 07:37:50;;;;;;;0.20;0.20;;;;;;;5.10;100.00;99890.72;5023268;28;20419;-80
2022/02/05 07:40:53;;;;;;;0.10;0.10;;;;;;;5.25;100.00;99891.06;5034615;28;20044;-80
2022/02/05 07:43:56;;;;;;;0.20;0.20;;;;;;;5.30;100.00;99883.03;5042380;28;20054;-81
2022/02/05 07:47:01;;;;;;;0.25;0.25;;;;;;;5.26;100.00;99882.34;5041992;28;20072;-80
2022/02/05 07:50:05;;;;;;;0.10;0.10;;;;;;;5.37;100.00;99887.59;5041482;28;20243;-82
2022/02/05 07:53:08;;;;;;;0.25;0.25;;;;;;;5.42;100.00;99887.00;5032051;28;20060;-83
2022/02/05 07:56:13;;;;;;;1.95;0.43;;;;;;;5.42;100.00;99872.44;5030550;28;20068;-80
2022/02/05 07:59:18;;;;;;;0.20;0.20;;;;;;;5.46;100.00;99884.91;5031758;28;20052;-82
2022/02/05 08:02:21;;;;;;;0.20;0.17;;;;;;;5.48;100.00;99871.44;5031277;28;20060;-82
2022/02/05 08:05:24;;;;;;;0.28;0.28;;;;;;;5.47;100.00;99864.38;5031913;28;20407;-81
2022/02/05 08:08:34;;;;;;;0.20;0.20;;;;;;;5.52;100.00;99869.38;5031387;28;20514;-82
2022/02/05 08:11:42;;;;;;;1.17;1.17;;;;;;;5.55;100.00;99854.66;5011011;28;20053;-80
2022/02/05 08:14:48;;;;;;;0.80;0.38;;;;;;;5.55;100.00;99851.13;5011712;28;20061;-81
2022/02/05 08:17:52;;;;;;;8.98;0.68;;;;;;;5.53;100.00;99846.03;5010438;28;20061;-80
2022/02/05 08:20:58;;;;;;;9.40;0.55;;;;;;;5.58;100.00;99848.28;5026160;28;20414;-80
2022/02/05 08:24:01;;;;;;;2.50;0.85;;;;;;;5.68;100.00;99857.41;5029910;28;20053;-79
2022/02/05 08:27:05;;;;;;;0.90;0.30;;;;;;;5.77;100.00;99852.78;5011149;28;20076;-80
2022/02/05 08:30:11;;;;;;;0.93;0.82;;;;;;;5.76;100.00;99848.47;5019960;28;20060;-80
2022/02/05 08:33:14;;;;;;;2.75;1.27;;;;;;;5.77;100.00;99841.75;5030876;28;20048;-80
2022/02/05 08:36:22;;;;;;;18.85;0.93;;;;;;;5.73;100.00;99832.78;5029930;28;20056;-80
2022/02/05 08:39:25;;;;;;;0.20;0.20;;;;;;;5.74;100.00;99826.03;5030921;28;20517;-80
2022/02/05 08:42:29;;;;;;;1.10;1.00;;;;;;;5.76;100.00;99820.84;5034149;28;20052;-80
2022/02/05 08:45:32;;;;;;;0.22;0.22;;;;;;;5.77;100.00;99810.56;5034192;28;20731;-79
2022/02/05 08:48:36;;;;;;;9.23;1.08;;;;;;;5.99;100.00;99809.47;5034496;28;20395;-79
2022/02/05 08:51:39;;;;;;;0.70;0.40;;;;;;;6.25;100.00;99806.63;5034779;28;20411;-79
2022/02/05 08:54:43;;;;;;;0.65;0.55;;;;;;;6.42;100.00;99797.72;5033773;28;20399;-79
2022/02/05 08:57:46;;;;;;;0.40;0.40;;;;;;;6.56;100.00;99801.97;5033923;28;20080;-78
2022/02/05 09:01:05;;;;;;;0.10;0.10;;;;;;;6.71;100.00;99801.00;5034142;28;20048;-79
2022/02/05 09:04:34;;;;;;;0.38;0.38;;;;;;;6.76;100.00;99796.88;5027535;28;20048;-78
2022/02/05 09:07:35;;;;;;;5.93;1.17;;;;;;;6.85;100.00;99785.88;5027249;28;20056;-78
2022/02/05 09:10:54;;;;;;;4.05;0.60;;;;;;;6.85;100.00;99772.81;5028260;28;20061;-78
2022/02/05 09:17:16;;;;;;;2.38;1.08;;;;;;;6.93;100.00;99744.88;5034409;28;20061;-78
2022/02/05 09:20:20;;;;;;;9.68;1.75;;;;;;;7.02;100.00;99737.38;5033310;28;20056;-80
2022/02/05 09:23:24;;;;;;;9.98;1.08;;;;;;;7.22;100.00;99740.53;5033275;28;20403;-80
2022/02/05 09:26:29;;;;;;;2.65;1.67;;;;;;;7.35;100.00;99721.81;5033627;28;20053;-80
2022/02/05 09:29:39;;;;;;;2.33;1.17;;;;;;;7.56;100.00;99731.25;5033096;28;20080;-80
2022/02/05 09:32:43;;;;;;;6.68;1.52;;;;;;;7.69;100.00;99734.69;5033393;28;20415;-79
2022/02/05 09:35:47;;;;;;;3.85;1.05;;;;;;;7.81;100.00;99719.16;5034204;28;20395;-80
2022/02/05 09:38:50;;;;;;;0.55;0.55;;;;;;;7.96;100.00;99725.66;5034224;28;20053;-81
2022/02/05 09:41:54;;;;;;;7.07;0.57;;;;;;;8.04;100.00;99716.56;5036297;28;20053;-79
2022/02/05 09:45:02;;;;;;;1.65;0.55;;;;;;;8.20;100.00;99709.94;5022671;28;20053;-79
2022/02/05 09:48:07;;;;;;;0.30;0.30;;;;;;;8.39;100.00;99703.16;5034885;28;20056;-79
2022/02/05 09:51:16;;;;;;;9.13;0.60;;;;;;;8.66;100.00;99703.16;5032636;28;20056;-77
2022/02/05 09:54:20;;;;;;;1.27;0.50;;;;;;;8.80;100.00;99693.38;5033263;28;20520;-79
2022/02/05 09:57:23;;;;;;;0.30;0.30;;;;;;;8.98;100.00;99685.75;5033314;28;20065;-79
2022/02/05 10:00:27;;;;;;;5.68;0.63;;;;;;;9.12;100.00;99675.97;5033015;28;20052;-79
2022/02/05 10:03:34;;;;;;;0.10;0.10;;;;;;;9.31;100.00;99676.66;5032884;28;20070;-80
2022/02/05 10:06:47;;;;;;;3.10;0.95;;;;;;;9.42;100.00;99682.47;5032571;28;20057;-80
2022/02/05 10:09:59;;;;;;;1.95;1.05;;;;;;;9.55;100.00;99680.25;5033087;28;20060;-80
2022/02/05 10:13:18;;;;;;;1.17;0.65;;;;;;;9.75;100.00;99670.03;5032331;28;20052;-80
2022/02/05 10:16:30;;;;;;;0.28;0.28;;;;;;;9.96;100.00;99659.84;5013157;28;20499;-81
2022/02/05 10:19:53;;;;;;;0.10;0.10;;;;;;;10.25;100.00;99665.50;5017960;28;20411;-80
2022/02/05 10:23:08;;;;;;;3.25;0.43;;;;;;;10.44;100.00;99654.94;5031920;28;20052;-81
2022/02/05 10:26:29;;;;;;;0.88;0.88;;;;;;;10.55;100.00;99675.41;5033113;28;20522;-85
2022/02/05 10:29:39;;;;;;;2.00;0.52;;;;;;;10.54;100.00;99676.66;5033069;28;20053;-82
2022/02/05 10:32:46;;;;;;;0.68;0.40;;;;;;;10.44;100.00;99678.00;5031490;28;20068;-81
2022/02/05 10:35:56;;;;;;;1.65;0.52;;;;;;;10.41;100.00;99667.81;5031977;28;20053;-82
2022/02/05 10:39:12;;;;;;;7.95;0.32;;;;;;;10.36;100.00;99665.69;5031857;28;20053;-81
2022/02/05 10:43:03;;;;;;;7.82;0.50;;;;;;;10.46;100.00;99658.03;5031631;28;20060;-81
2022/02/05 10:45:50;;;;;;;0.30;0.30;;;;;;;10.50;100.00;99673.28;5032973;28;20415;-81
2022/02/05 10:48:54;;;;;;;5.93;0.95;;;;;;;10.35;100.00;99672.50;5030872;28;20057;-81
2022/02/05 10:51:59;;;;;;;0.10;0.10;;;;;;;10.24;100.00;99675.09;5031642;28;20052;-81
2022/02/05 11:08:10;;;;;;;3.50;1.75;;;;;;;10.63;100.00;99662.63;5032295;28;20064;-81
2022/02/05 11:18:31;;;;;;;0.55;0.50;;;;;;;10.73;100.00;99640.25;5031899;28;20072;-81
2022/02/05 11:21:35;;;;;;;0.50;0.50;;;;;;;10.68;100.00;99636.91;5031279;28;20060;-81
2022/02/05 11:24:38;;;;;;;1.17;0.80;;;;;;;10.71;100.00;99639.97;5032085;28;20053;-81
2022/02/05 11:27:47;;;;;;;0.98;0.57;;;;;;;10.78;100.00;99617.31;5031122;28;20134;-81
2022/02/05 11:30:53;;;;;;;0.38;0.15;;;;;;;10.86;100.00;99612.84;5031351;28;20072;-81
2022/02/05 11:34:28;;;;;;;0.10;0.10;;;;;;;10.96;100.00;99611.50;5030505;28;20052;-81
2022/02/05 11:37:51;;;;;;;5.32;0.77;;;;;;;11.02;100.00;99606.78;5031176;28;20052;-82
2022/02/05 11:40:55;;;;;;;1.85;0.40;;;;;;;11.01;100.00;99594.09;5014810;28;20408;-81
2022/02/05 11:44:18;;;;;;;0.30;0.30;;;;;;;11.04;100.00;99591.13;5034174;28;20053;-82
2022/02/05 11:47:24;;;;;;;1.45;0.30;;;;;;;11.06;100.00;99583.03;5011073;28;20408;-81
2022/02/05 11:50:28;;;;;;;0.10;0.10;;;;;;;11.10;100.00;99571.69;5023843;28;20072;-81
2022/02/05 11:53:51;;;;;;;7.38;1.65;;;;;;;11.15;100.00;99562.63;5030337;28;20117;-82
2022/02/05 11:57:00;;;;;;;7.97;2.05;;;;;;;11.20;100.00;99561.91;5031456;28;20057;-81
2022/02/05 12:00:06;;;;;;;1.85;0.65;;;;;;;11.20;100.00;99545.19;5030675;28;20052;-80
2022/02/05 12:03:18;;;;;;;0.20;0.17;;;;;;;11.22;100.00;99545.47;5030988;28;20521;-81
2022/02/05 12:06:21;;;;;;;12.65;0.73;;;;;;;11.22;100.00;99525.97;5030679;28;20052;-82
2022/02/05 12:09:43;;;;;;;7.78;0.63;;;;;;;11.24;100.00;99535.38;5030366;28;20052;-81
2022/02/05 12:12:50;;;;;;;11.20;1.17;;;;;;;11.25;100.00;99541.72;5017666;28;20427;-83
2022/02/05 12:15:57;;;;;;;0.20;0.20;;;;;;;11.18;100.00;99539.34;5049341;28;20048;-80
2022/02/05 12:19:27;;;;;;;3.88;0.35;;;;;;;11.10;100.00;99535.44;5026222;28;20057;-80
2022/02/05 12:26:08;;;;;;;0.90;0.77;;;;;;;10.94;100.00;99533.19;5035845;28;20052;-81
2022/02/05 12:29:27;;;;;;;5.68;0.52;;;;;;;10.84;100.00;99537.38;5034426;28;20510;-81
2022/02/05 12:32:31;;;;;;;1.02;0.35;;;;;;;10.84;100.00;99537.38;5035131;28;20072;-81
2022/02/05 12:35:36;;;;;;;2.05;0.60;;;;;;;10.77;100.00;99537.75;5034305;28;20053;-83
2022/02/05 12:38:41;;;;;;;3.20;0.75;;;;;;;10.71;100.00;99528.56;5033777;28;20675;-82
2022/02/05 12:41:49;;;;;;;3.60;0.30;;;;;;;10.75;100.00;99526.34;5015561;28;20053;-84
2022/02/05 12:44:53;;;;;;;0.35;0.35;;;;;;;10.72;100.00;99518.97;5037020;28;20056;-80
2022/02/05 12:48:00;;;;;;;6.00;0.90;;;;;;;10.74;100.00;99516.47;5029840;28;20065;-80
2022/02/05 12:51:04;;;;;;;7.10;1.13;;;;;;;10.74;100.00;99516.47;5056368;28;20064;-80
2022/02/05 12:54:12;;;;;;;4.75;0.65;;;;;;;10.77;100.00;99515.47;5033408;28;20060;-80
2022/02/05 12:57:17;;;;;;;13.05;1.00;;;;;;;10.77;100.00;99509.91;5033355;28;20052;-81
2022/02/05 13:00:21;;;;;;;0.22;0.22;;;;;;;10.73;100.00;99503.78;5034271;28;20056;-80
2022/02/05 13:03:27;;;;;;;0.75;0.75;;;;;;;10.71;100.00;99495.16;5034269;28;20057;-81
2022/02/05 13:06:30;;;;;;;6.55;0.47;;;;;;;10.70;100.00;99488.06;5033706;28;20053;-81
2022/02/05 13:09:45;;;;;;;1.15;0.45;;;;;;;10.68;100.00;99485.75;5033758;28;20068;-80
2022/02/05 13:12:51;;;;;;;3.58;0.68;;;;;;;10.72;100.00;99496.69;5033248;28;20052;-80
2022/02/05 13:15:55;;;;;;;0.10;0.10;;;;;;;10.74;100.00;99488.63;5033617;28;20048;-80
2022/02/05 13:19:55;;;;;;;1.85;0.40;;;;;;;10.77;100.00;99493.19;5033381;28;20056;-80
2022/02/05 13:26:52;;;;;;;0.20;0.20;;;;;;;10.73;100.00;99475.94;5034017;28;20057;-79
2022/02/05 13:29:54;;;;;;;0.30;0.30;;;;;;;10.71;100.00;99479.22;5032535;28;20526;-79
2022/02/05 13:36:23;;;;;;;0.57;0.40;;;;;;;10.72;100.00;99452.13;5013577;28;20427;-80
2022/02/05 13:42:52;;;;;;;7.35;0.60;;;;;;;10.74;100.00;99433.69;5034441;28;20048;-81
2022/02/05 13:46:10;;;;;;;2.53;0.57;;;;;;;10.73;100.00;99436.94;5032748;28;20052;-80
2022/02/05 13:49:18;;;;;;;4.55;0.80;;;;;;;10.73;100.00;99420.22;5032561;28;20082;-80
2022/02/05 13:52:22;;;;;;;1.95;0.20;;;;;;;10.78;100.00;99427.91;5033566;28;20056;-79
2022/02/05 13:55:35;;;;;;;0.63;0.63;;;;;;;10.80;100.00;99414.25;5033371;28;20052;-79
2022/02/05 13:58:40;;;;;;;14.27;1.02;;;;;;;10.86;100.00;99407.50;5032904;28;20435;-80
2022/02/05 14:01:43;;;;;;;0.20;0.20;;;;;;;10.85;100.00;99405.19;5033435;28;20052;-79
2022/02/05 14:05:10;;;;;;;2.40;0.93;;;;;;;10.84;100.00;99409.22;5033231;28;20052;-81
2022/02/05 14:08:25;;;;;;;0.13;0.13;;;;;;;10.82;100.00;99403.38;5033419;28;20056;-81
2022/02/05 14:11:31;;;;;;;5.68;0.75;;;;;;;10.77;100.00;99404.06;5027554;28;20052;-81
2022/02/05 14:14:35;;;;;;;0.45;0.20;;;;;;;10.68;100.00;99398.66;5012427;28;20068;-82
2022/02/05 14:17:39;;;;;;;0.32;0.30;;;;;;;10.72;100.00;99396.44;5013930;28;20052;-83
2022/02/05 14:21:00;;;;;;;1.15;0.20;;;;;;;10.75;100.00;99387.84;5049573;28;20056;-82
2022/02/05 14:24:05;;;;;;;6.88;0.63;;;;;;;10.77;100.00;99393.69;5032777;28;20060;-82
2022/02/05 14:27:15;;;;;;;0.10;0.10;;;;;;;10.78;100.00;99372.19;5012384;28;20622;-82
2022/02/05 14:30:21;;;;;;;2.03;0.57;;;;;;;10.70;100.00;99387.81;5022865;28;20057;-82
2022/02/05 14:33:34;;;;;;;2.40;0.70;;;;;;;10.68;100.00;99373.59;5031733;28;20060;-82
2022/02/05 14:40:20;;;;;;;0.47;0.47;;;;;;;10.65;100.00;99381.66;5032360;28;20061;-83
2022/02/05 14:40:41;;;;;;;1.35;0.30;;;;;;;10.60;100.00;99374.00;5031322;28;20056;-81
2022/02/05 14:43:44;;;;;;;0.73;0.65;;;;;;;10.50;100.00;99375.38;5030611;28;20407;-81
2022/02/05 14:46:48;;;;;;;5.68;0.73;;;;;;;10.50;100.00;99378.16;5032623;28;20053;-82
2022/02/05 14:49:52;;;;;;;5.85;0.52;;;;;;;10.51;100.00;99365.03;5031580;28;20063;-81
2022/02/05 14:52:55;;;;;;;1.33;0.93;;;;;;;10.52;100.00;99370.13;5031665;28;20056;-81
2022/02/05 14:55:59;;;;;;;1.35;0.57;;;;;;;10.52;100.00;99372.91;5032273;28;20049;-81
2022/02/05 14:59:04;;;;;;;3.60;0.55;;;;;;;10.42;100.00;99368.72;5032355;28;20061;-82
2022/02/05 15:02:08;;;;;;;0.47;0.38;;;;;;;10.45;100.00;99362.19;5031881;28;20072;-83
2022/02/05 15:05:12;;;;;;;0.90;0.32;;;;;;;10.38;100.00;99345.88;5031337;28;20057;-81
2022/02/05 15:08:16;;;;;;;0.95;0.38;;;;;;;10.35;100.00;99346.09;5031960;28;20698;-81
2022/02/05 15:11:20;;;;;;;0.52;0.30;;;;;;;10.36;100.00;99351.16;5031628;28;20052;-79
2022/02/05 15:14:24;;;;;;;7.45;1.15;;;;;;;10.36;100.00;99348.38;5033534;28;20403;-81
2022/02/05 15:17:29;;;;;;;2.65;0.35;;;;;;;10.33;100.00;99343.78;5054159;28;20056;-81
2022/02/05 15:20:32;;;;;;;0.22;0.22;;;;;;;10.37;100.00;99338.78;5030940;28;20052;-81
2022/02/05 15:23:36;;;;;;;2.60;1.45;;;;;;;10.37;100.00;99338.78;5031426;28;20057;-81
2022/02/05 15:26:39;;;;;;;1.75;0.15;;;;;;;10.32;100.00;99342.25;5031105;28;20057;-82
2022/02/05 15:29:42;;;;;;;3.85;1.30;;;;;;;10.40;100.00;99332.25;5030952;28;20823;-81
2022/02/05 15:32:46;;;;;;;3.50;1.67;;;;;;;10.36;100.00;99328.91;5030455;28;20080;-82
2022/02/05 15:35:50;;;;;;;0.85;0.68;;;;;;;10.30;100.00;99333.63;5031857;28;20048;-80
2022/02/05 15:45:22;;;;;;;2.05;0.68;;;;;;;10.31;100.00;99301.75;5012060;28;20400;-79
2022/02/05 15:48:26;;;;;;;0.95;0.57;;;;;;;10.27;100.00;99301.19;5011473;28;20049;-81
2022/02/05 15:51:31;;;;;;;0.75;0.30;;;;;;;10.23;100.00;99300.66;5010677;28;20411;-80
2022/02/05 15:54:35;;;;;;;1.02;0.65;;;;;;;10.19;100.00;99294.53;5011738;28;20511;-80
2022/02/05 15:58:23;;;;;;;0.20;0.10;;;;;;;10.22;100.00;99281.66;5011964;28;20395;-82
2022/02/05 16:01:04;;;;;;;11.02;0.88;;;;;;;10.19;100.00;99283.41;5029141;28;20052;-81
2022/02/05 16:04:08;;;;;;;1.50;0.38;;;;;;;10.16;100.00;99267.66;5030421;28;20055;-81
2022/02/05 16:07:12;;;;;;;1.90;0.35;;;;;;;10.15;100.00;99266.16;5031188;28;20056;-80
2022/02/05 16:10:17;;;;;;;0.20;0.20;;;;;;;10.04;100.00;99252.06;5030913;28;20052;-82
2022/02/05 16:13:20;;;;;;;0.82;0.75;;;;;;;10.05;100.00;99255.63;5031496;28;20064;-81
2022/02/05 16:16:23;;;;;;;4.88;0.93;;;;;;;10.14;100.00;99252.72;5030396;28;20068;-82
2022/02/05 16:19:27;;;;;;;0.20;0.20;;;;;;;10.21;100.00;99255.84;5026873;28;20056;-84
2022/02/05 16:22:30;;;;;;;1.77;0.50;;;;;;;10.20;100.00;99254.31;5034243;28;20049;-83
2022/02/05 16:25:34;;;;;;;0.45;0.40;;;;;;;10.19;100.00;99233.31;5019595;28;20048;-83
2022/02/05 16:28:38;;;;;;;10.68;0.90;;;;;;;10.24;100.00;99240.97;5030805;28;20526;-82
2022/02/05 16:31:47;;;;;;;6.53;0.30;;;;;;;10.30;100.00;99221.53;5011659;28;20057;-81
2022/02/05 16:34:54;;;;;;;0.68;0.22;;;;;;;10.29;100.00;99226.34;5011801;28;20064;-80
2022/02/05 16:37:59;;;;;;;1.27;0.40;;;;;;;10.31;100.00;99223.84;5010465;28;20427;-81
2022/02/05 16:41:06;;;;;;;0.85;0.47;;;;;;;10.38;100.00;99226.19;5036081;28;20450;-81
2022/02/05 16:44:10;;;;;;;4.15;0.80;;;;;;;10.39;100.00;99211.03;5030378;28;20052;-81
2022/02/05 16:47:15;;;;;;;6.07;1.98;;;;;;;10.41;100.00;99216.88;5031088;28;20053;-81
2022/02/05 16:50:24;;;;;;;1.45;0.63;;;;;;;10.48;100.00;99205.28;5028423;28;20061;-81
2022/02/05 16:53:28;;;;;;;2.65;0.90;;;;;;;10.53;100.00;99193.47;5029464;28;20056;-81
2022/02/05 16:56:34;;;;;;;3.40;0.43;;;;;;;10.53;100.00;99199.03;5052221;28;20056;-82
2022/02/05 16:59:37;;;;;;;9.35;0.90;;;;;;;10.51;100.00;99204.31;5029426;28;20057;-81
2022/02/05 17:02:41;;;;;;;6.28;0.47;;;;;;;10.51;100.00;99201.53;5032368;28;20061;-81
2022/02/05 17:05:45;;;;;;;3.83;0.82;;;;;;;10.52;100.00;99199.53;5033527;28;20049;-81
2022/02/05 17:08:52;;;;;;;4.53;1.02;;;;;;;10.51;100.00;99187.63;5034248;28;20053;-81
2022/02/05 17:12:01;;;;;;;5.13;0.60;;;;;;;10.43;100.00;99197.66;5033711;28;20640;-81
2022/02/05 17:15:04;;;;;;;1.52;0.82;;;;;;;10.45;100.00;99189.59;5033558;28;20053;-81
2022/02/05 17:18:41;;;;;;;12.00;1.40;;;;;;;10.48;100.00;99180.25;5033015;28;20057;-81
2022/02/05 17:21:37;;;;;;;0.68;0.32;;;;;;;10.54;100.00;99175.50;5033922;28;20047;-80
2022/02/05 17:24:41;;;;;;;0.77;0.25;;;;;;;10.45;100.00;99161.75;5033273;28;20053;-80